createdAt,value
2019-05-25T00:00:58.756Z,100719.61
2019-05-25T00:06:05.149Z,100721.70
2019-05-25T00:08:34.651Z,100724.91
2019-05-25T00:11:03.812Z,100729.91
2019-05-25T00:13:32.536Z,100726.07
2019-05-25T00:16:01.165Z,100727.34
2019-05-25T00:18:30.586Z,100733.17
2019-05-25T00:23:36.883Z,100739.75
2019-05-25T00:28:45.448Z,100741.10
2019-05-25T00:31:14.528Z,100740.68
2019-05-25T00:33:43.900Z,100742.61
2019-05-25T00:36:12.693Z,100754.40
2019-05-25T00:38:41.403Z,100745.89
2019-05-25T00:41:10.083Z,100748.72
2019-05-25T00:43:39.119Z,100751.10
2019-05-25T00:48:47.332Z,100746.32
2019-05-25T00:51:16.367Z,100751.95
2019-05-25T00:53:45.606Z,100749.13
2019-05-25T00:56:15.280Z,100748.61
2019-05-25T00:58:44.358Z,100746.77
2019-05-25T01:01:12.984Z,100752.19
2019-05-25T01:03:42.283Z,100753.00
2019-05-25T01:06:11.322Z,100751.50
2019-05-25T01:08:40.163Z,100750.34
2019-05-25T01:11:09.229Z,100749.46
2019-05-25T01:13:38.241Z,100753.29
2019-05-25T01:16:08.194Z,100755.58
2019-05-25T01:18:37.237Z,100758.50
2019-05-25T01:23:43.444Z,100757.41
2019-05-25T01:26:12.116Z,100762.22
2019-05-25T01:28:41.193Z,100754.94
2019-05-25T01:31:09.917Z,100763.24
2019-05-25T01:33:38.537Z,100762.28
2019-05-25T01:36:07.294Z,100764.61
2019-05-25T01:38:36.327Z,100757.91
2019-05-25T01:41:05.345Z,100765.07
2019-05-25T01:43:34.009Z,100764.66
2019-05-25T01:46:02.717Z,100772.40
2019-05-25T01:48:31.925Z,100768.66
2019-05-25T01:51:01.448Z,100772.70
2019-05-25T01:53:30.759Z,100769.59
2019-05-25T01:58:37.466Z,100763.44
2019-05-25T02:01:06.543Z,100767.21
2019-05-25T02:03:35.185Z,100771.98
2019-05-25T02:08:43.352Z,100760.14
2019-05-25T02:11:11.970Z,100767.63
2019-05-25T02:16:22.901Z,100770.00
2019-05-25T02:18:52.129Z,100769.78
2019-05-25T02:21:21.386Z,100775.94
2019-05-25T02:23:51.089Z,100776.00
2019-05-25T02:26:41.481Z,100772.23
2019-05-25T02:29:25.118Z,100775.42
2019-05-25T02:32:05.390Z,100777.02
2019-05-25T02:37:42.395Z,100766.95
2019-05-25T02:40:36.550Z,100771.81
2019-05-25T02:43:22.787Z,100770.36
2019-05-25T02:48:41.264Z,100770.41
2019-05-25T02:51:29.539Z,100771.55
2019-05-25T02:57:14.565Z,100766.55
2019-05-25T03:00:13.594Z,100770.60
2019-05-25T03:03:01.354Z,100771.15
2019-05-25T03:08:26.391Z,100772.15
2019-05-25T03:10:56.149Z,100779.20
2019-05-25T03:13:25.332Z,100778.93
2019-05-25T03:15:53.998Z,100775.23
2019-05-25T03:18:50.309Z,100782.70
2019-05-25T03:24:43.230Z,100773.70
2019-05-25T03:30:27.266Z,100780.36
2019-05-25T03:36:07.609Z,100790.86
2019-05-25T03:39:02.744Z,100790.55
2019-05-25T03:41:54.726Z,100798.06
2019-05-25T03:44:23.290Z,100796.89
2019-05-25T03:47:13.722Z,100789.14
2019-05-25T03:50:12.591Z,100793.58
2019-05-25T03:52:59.606Z,100793.97
2019-05-25T03:55:41.259Z,100798.88
2019-05-25T04:01:11.943Z,100795.58
2019-05-25T04:06:46.253Z,100797.19
2019-05-25T04:09:26.112Z,100804.29
2019-05-25T04:12:09.578Z,100809.18
2019-05-25T04:17:41.156Z,100804.40
2019-05-25T04:20:20.881Z,100809.65
2019-05-25T04:25:56.390Z,100811.56
2019-05-25T04:31:46.218Z,100814.30
2019-05-25T04:37:20.666Z,100820.73
2019-05-25T04:39:49.671Z,100818.27
2019-05-25T04:42:18.292Z,100819.23
2019-05-25T04:44:47.447Z,100820.19
2019-05-25T04:47:26.549Z,100824.94
2019-05-25T04:49:46.873Z,100823.78
2019-05-25T04:52:15.533Z,100828.58
2019-05-25T04:54:44.904Z,100830.66
2019-05-25T04:57:13.592Z,100841.48
2019-05-25T04:59:43.758Z,100833.80
2019-05-25T05:02:12.423Z,100829.53
2019-05-25T05:04:42.394Z,100833.05
2019-05-25T05:07:11.058Z,100837.61
2019-05-25T05:12:20.209Z,100840.23
2019-05-25T05:14:48.956Z,100841.47
2019-05-25T05:17:17.639Z,100843.55
2019-05-25T05:19:46.268Z,100843.09
2019-05-25T05:22:14.908Z,100844.20
2019-05-25T05:24:43.533Z,100847.11
2019-05-25T05:29:51.618Z,100843.70
2019-05-25T05:32:27.444Z,100856.12
2019-05-25T05:34:51.119Z,100860.75
2019-05-25T05:37:22.090Z,100859.09
2019-05-25T05:39:52.979Z,100858.10
2019-05-25T05:42:25.449Z,100858.75
2019-05-25T05:44:57.392Z,100859.60
2019-05-25T05:47:27.786Z,100866.92
2019-05-25T05:50:00.270Z,100862.34
2019-05-25T05:52:37.951Z,100860.42
2019-05-25T05:55:08.894Z,100865.20
2019-05-25T05:57:37.826Z,100865.13
2019-05-25T06:00:08.812Z,100865.34
2019-05-25T06:02:39.020Z,100864.78
2019-05-25T06:05:08.454Z,100871.67
2019-05-25T06:07:37.497Z,100867.27
2019-05-25T06:10:08.194Z,100872.02
2019-05-25T06:12:37.220Z,100872.02
2019-05-25T06:15:06.975Z,100869.15
2019-05-25T06:17:35.631Z,100877.41
2019-05-25T06:20:05.592Z,100873.68
2019-05-25T06:22:35.047Z,100880.05
2019-05-25T06:25:04.648Z,100883.88
2019-05-25T06:30:13.849Z,100878.90
2019-05-25T06:32:42.541Z,100884.37
2019-05-25T06:37:50.148Z,100876.88
2019-05-25T06:42:57.124Z,100880.95
2019-05-25T06:45:25.746Z,100888.59
2019-05-25T06:47:54.761Z,100889.77
2019-05-25T06:50:23.721Z,100882.27
2019-05-25T06:55:29.927Z,100883.75
2019-05-25T07:00:36.524Z,100889.37
2019-05-25T07:03:06.538Z,100889.00
2019-05-25T07:05:35.485Z,100894.52
2019-05-25T07:08:04.170Z,100891.72
2019-05-25T07:10:32.782Z,100901.71
2019-05-25T07:13:02.244Z,100896.89
2019-05-25T07:15:31.022Z,100890.95
2019-05-25T07:18:00.052Z,100895.09
2019-05-25T07:20:28.660Z,100896.72
2019-05-25T07:22:58.835Z,100902.96
2019-05-25T07:25:28.064Z,100897.81
2019-05-25T07:28:00.091Z,100905.86
2019-05-25T07:30:27.725Z,100905.41
2019-05-25T07:32:56.441Z,100913.75
2019-05-25T07:35:25.039Z,100912.02
2019-05-25T07:37:53.712Z,100906.08
2019-05-25T07:42:59.929Z,100911.87
2019-05-25T07:45:28.893Z,100911.80
2019-05-25T07:47:57.627Z,100916.92
2019-05-25T07:50:26.635Z,100917.02
2019-05-25T07:52:55.251Z,100917.78
2019-05-25T07:58:15.630Z,100918.90
2019-05-25T08:00:31.669Z,100923.16
2019-05-25T08:05:38.474Z,100920.42
2019-05-25T08:10:44.666Z,100928.45
2019-05-25T08:13:13.321Z,100930.02
2019-05-25T08:18:19.646Z,100929.02
2019-05-25T08:20:49.061Z,100934.33
2019-05-25T08:23:18.014Z,100935.00
2019-05-25T08:25:47.015Z,100942.23
2019-05-25T08:28:29.838Z,100945.90
2019-05-25T08:30:46.120Z,100947.62
2019-05-25T08:33:14.748Z,100938.84
2019-05-25T08:38:20.891Z,100934.73
2019-05-25T08:40:50.114Z,100936.06
2019-05-25T08:43:19.460Z,100937.58
2019-05-25T08:45:48.316Z,100936.35
2019-05-25T08:48:16.922Z,100938.95
2019-05-25T08:50:46.201Z,100946.69
2019-05-25T08:53:15.167Z,100948.16
2019-05-25T08:55:44.464Z,100951.05
2019-05-25T08:58:13.442Z,100951.06
2019-05-25T09:00:42.486Z,100960.03
2019-05-25T09:03:12.192Z,100959.45
2019-05-25T09:05:41.220Z,100964.21
2019-05-25T09:08:10.591Z,100960.42
2019-05-25T09:10:39.510Z,100956.80
2019-05-25T09:13:08.107Z,100962.08
2019-05-25T09:18:13.784Z,100959.52
2019-05-25T09:20:42.442Z,100966.48
2019-05-25T09:23:11.421Z,100967.54
2019-05-25T09:25:40.342Z,100968.90
2019-05-25T09:28:09.046Z,100970.59
2019-05-25T09:30:37.669Z,100974.55
2019-05-25T09:33:06.613Z,100978.03
2019-05-25T09:35:35.836Z,100975.80
2019-05-25T09:38:04.810Z,100977.77
2019-05-25T09:40:34.065Z,100970.51
2019-05-25T09:43:03.036Z,100973.03
2019-05-25T09:48:11.722Z,100978.11
2019-05-25T09:50:40.651Z,100977.11
2019-05-25T09:53:09.644Z,100971.44
2019-05-25T09:55:38.325Z,100975.82
2019-05-25T09:58:07.286Z,100964.09
2019-05-25T10:00:40.024Z,100978.44
2019-05-25T10:03:06.986Z,100975.14
2019-05-25T10:08:15.737Z,100978.70
2019-05-25T10:10:44.635Z,100970.37
2019-05-25T10:13:14.204Z,100970.59
2019-05-25T10:15:43.140Z,100966.17
2019-05-25T10:18:11.755Z,100964.64
2019-05-25T10:20:40.605Z,100967.74
2019-05-25T10:23:10.463Z,100967.17
2019-05-25T10:28:16.844Z,100972.41
2019-05-25T10:30:45.781Z,100964.11
2019-05-25T10:35:51.962Z,100957.80
2019-05-25T10:38:20.573Z,100966.63
2019-05-25T10:40:49.365Z,100971.92
2019-05-25T10:43:18.054Z,100966.13
2019-05-25T10:45:47.039Z,100965.84
2019-05-25T10:48:15.950Z,100969.73
2019-05-25T10:50:45.539Z,100968.38
2019-05-25T10:53:14.189Z,100970.94
2019-05-25T10:55:43.561Z,100971.27
2019-05-25T10:58:12.516Z,100977.93
2019-05-25T11:03:18.759Z,100969.23
2019-05-25T11:05:47.679Z,100971.92
2019-05-25T11:08:17.231Z,100968.95
2019-05-25T11:10:46.016Z,100966.67
2019-05-25T11:13:14.642Z,100969.98
2019-05-25T11:15:43.681Z,100966.20
2019-05-25T11:18:12.730Z,100967.18
2019-05-25T11:20:41.988Z,100965.59
2019-05-25T11:23:10.890Z,100968.87
2019-05-25T11:25:39.850Z,100972.70
2019-05-25T11:28:09.132Z,100972.24
2019-05-25T11:30:38.058Z,100971.73
2019-05-25T11:33:06.677Z,100971.55
2019-05-25T11:38:15.681Z,100971.34
2019-05-25T11:43:22.122Z,100963.67
2019-05-25T11:45:50.783Z,100964.30
2019-05-25T11:50:59.916Z,100969.34
2019-05-25T11:53:28.894Z,100966.03
2019-05-25T11:55:58.010Z,100967.78
2019-05-25T11:58:27.324Z,100972.04
2019-05-25T12:00:55.967Z,100966.44
2019-05-25T12:03:24.628Z,100963.25
2019-05-25T12:05:53.436Z,100972.16
2019-05-25T12:08:22.067Z,100974.05
2019-05-25T12:10:50.680Z,100970.98
2019-05-25T12:13:19.321Z,100971.43
2019-05-25T12:15:48.457Z,100979.72
2019-05-25T12:20:55.657Z,100977.38
2019-05-25T12:23:24.607Z,100978.75
2019-05-25T12:25:53.231Z,100983.66
2019-05-25T12:28:22.265Z,100982.48
2019-05-25T12:30:51.181Z,100978.11
2019-05-25T12:33:20.083Z,100983.55
2019-05-25T12:35:48.982Z,100978.64
2019-05-25T12:38:17.916Z,100976.75
2019-05-25T12:40:53.566Z,100983.99
2019-05-25T12:43:17.667Z,100978.46
2019-05-25T12:45:46.316Z,100983.41
2019-05-25T12:48:15.581Z,100985.33
2019-05-25T12:50:44.232Z,100982.16
2019-05-25T12:53:13.502Z,100982.96
2019-05-25T12:55:42.125Z,100979.99
2019-05-25T12:58:10.811Z,100984.80
2019-05-25T13:00:39.499Z,100981.15
2019-05-25T13:03:11.025Z,100984.02
2019-05-25T13:05:40.305Z,100986.31
2019-05-25T13:08:08.909Z,100986.28
2019-05-25T13:10:38.986Z,100985.18
2019-05-25T13:13:07.942Z,100985.14
2019-05-25T13:15:36.610Z,100979.84
2019-05-25T13:18:05.608Z,100976.65
2019-05-25T13:20:34.274Z,100979.45
2019-05-25T13:23:05.450Z,100981.63
2019-05-25T13:25:34.243Z,100980.34
2019-05-25T13:28:02.906Z,100977.36
2019-05-25T13:30:31.865Z,100972.16
2019-05-25T13:33:00.478Z,100977.22
2019-05-25T13:35:29.123Z,100973.14
2019-05-25T13:37:58.110Z,100975.14
2019-05-25T13:40:26.711Z,100965.02
2019-05-25T13:42:55.744Z,100967.22
2019-05-25T13:45:24.345Z,100966.34
2019-05-25T13:47:53.289Z,100962.26
2019-05-25T13:50:21.935Z,100957.73
2019-05-25T13:52:51.066Z,100965.39
2019-05-25T13:55:19.670Z,100965.58
2019-05-25T14:00:26.207Z,100957.88
2019-05-25T14:02:54.983Z,100957.91
2019-05-25T14:05:24.184Z,100963.25
2019-05-25T14:07:53.189Z,100958.34
2019-05-25T14:10:22.145Z,100966.99
2019-05-25T14:15:31.050Z,100964.33
2019-05-25T14:17:59.943Z,100958.42
2019-05-25T14:23:06.479Z,100964.62
2019-05-25T14:25:35.633Z,100960.32
2019-05-25T14:28:04.575Z,100959.83
2019-05-25T14:30:33.241Z,100952.94
2019-05-25T14:33:02.379Z,100951.14
2019-05-25T14:35:31.544Z,100952.16
2019-05-25T14:38:00.387Z,100959.68
2019-05-25T14:40:29.339Z,100947.80
2019-05-25T14:42:58.012Z,100954.74
2019-05-25T14:45:27.036Z,100958.87
2019-05-25T14:47:55.957Z,100959.42
2019-05-25T14:50:24.577Z,100968.02
2019-05-25T14:52:53.566Z,100963.02
2019-05-25T14:55:22.546Z,100971.59
2019-05-25T15:00:30.995Z,100967.55
2019-05-25T15:05:37.301Z,100964.17
2019-05-25T15:08:05.989Z,100965.55
2019-05-25T15:10:35.061Z,100955.44
2019-05-25T15:13:03.757Z,100956.94
2019-05-25T15:15:32.842Z,100961.51
2019-05-25T15:18:01.792Z,100959.91
2019-05-25T15:20:30.476Z,100966.03
2019-05-25T15:23:00.193Z,100956.37
2019-05-25T15:25:29.224Z,100952.27
2019-05-25T15:27:58.216Z,100956.40
2019-05-25T15:30:26.841Z,100963.45
2019-05-25T15:32:56.182Z,100951.83
2019-05-25T15:35:24.875Z,100951.83
2019-05-25T15:40:31.039Z,100947.01
2019-05-25T15:45:37.457Z,100940.53
2019-05-25T15:48:06.080Z,100947.75
2019-05-25T15:50:34.886Z,100939.26
2019-05-25T15:53:03.572Z,100938.19
2019-05-25T15:58:10.194Z,100934.36
2019-05-25T16:00:49.967Z,100940.95
2019-05-25T16:03:19.951Z,100937.89
2019-05-25T16:08:26.349Z,100937.52
2019-05-25T16:10:56.161Z,100944.41
2019-05-25T16:13:26.693Z,100941.55
2019-05-25T16:15:55.430Z,100936.98
2019-05-25T16:18:24.176Z,100936.98
2019-05-25T16:20:53.952Z,100941.25
2019-05-25T16:23:22.613Z,100945.70
2019-05-25T16:25:51.610Z,100946.28
2019-05-25T16:28:20.254Z,100949.73
2019-05-25T16:30:48.985Z,100949.73
2019-05-25T16:33:17.606Z,100938.87
2019-05-25T16:35:46.242Z,100941.05
2019-05-25T16:38:14.893Z,100941.25
2019-05-25T16:40:43.509Z,100937.70
2019-05-25T16:43:12.131Z,100931.63
2019-05-25T16:45:41.097Z,100937.16
2019-05-25T16:48:10.009Z,100934.39
2019-05-25T16:50:38.666Z,100942.11
2019-05-25T16:53:07.342Z,100943.45
2019-05-25T16:55:35.948Z,100936.30
2019-05-25T16:58:04.574Z,100936.30
2019-05-25T17:00:33.513Z,100939.63
2019-05-25T17:03:02.132Z,100936.86
2019-05-25T17:05:30.734Z,100941.33
2019-05-25T17:07:59.563Z,100940.30
2019-05-25T17:10:28.470Z,100938.87
2019-05-25T17:12:57.086Z,100938.87
2019-05-25T17:15:26.089Z,100943.72
2019-05-25T17:17:55.681Z,100939.04
2019-05-25T17:20:24.712Z,100940.95
2019-05-25T17:22:53.414Z,100935.25
2019-05-25T17:25:22.521Z,100938.48
2019-05-25T17:27:51.142Z,100934.29
2019-05-25T17:30:42.432Z,100929.34
2019-05-25T17:33:11.524Z,100932.00
2019-05-25T17:38:19.615Z,100925.34
2019-05-25T17:40:48.319Z,100929.61
2019-05-25T17:43:17.676Z,100939.80
2019-05-25T17:48:25.582Z,100928.75
2019-05-25T17:50:54.224Z,100935.80
2019-05-25T17:53:23.422Z,100934.09
2019-05-25T17:55:52.123Z,100932.37
2019-05-25T17:58:21.083Z,100932.16
2019-05-25T18:00:50.415Z,100931.41
2019-05-25T18:03:19.435Z,100932.73
2019-05-25T18:08:27.491Z,100925.87
2019-05-25T18:10:56.140Z,100929.48
2019-05-25T18:13:28.546Z,100922.66
2019-05-25T18:15:55.612Z,100919.79
2019-05-25T18:18:24.236Z,100920.91
2019-05-25T18:20:52.874Z,100919.77
2019-05-25T18:23:22.138Z,100921.25
2019-05-25T18:25:50.956Z,100921.10
2019-05-25T18:28:19.594Z,100922.05
2019-05-25T18:30:48.427Z,100921.73
2019-05-25T18:33:17.330Z,100932.28
2019-05-25T18:35:45.934Z,100929.44
2019-05-25T18:38:14.924Z,100928.65
2019-05-25T18:43:20.650Z,100926.19
2019-05-25T18:45:50.240Z,100931.39
2019-05-25T18:48:18.895Z,100926.11
2019-05-25T18:50:47.727Z,100925.41
2019-05-25T18:53:16.830Z,100930.64
2019-05-25T18:55:45.477Z,100934.98
2019-05-25T18:58:14.508Z,100929.13
2019-05-25T19:03:20.204Z,100934.16
2019-05-25T19:05:48.997Z,100934.98
2019-05-25T19:10:55.506Z,100937.47
2019-05-25T19:16:02.438Z,100940.89
2019-05-25T19:18:31.081Z,100940.83
2019-05-25T19:23:37.234Z,100949.50
2019-05-25T19:26:05.861Z,100955.27
2019-05-25T19:28:34.478Z,100951.63
2019-05-25T19:31:03.170Z,100955.55
2019-05-25T19:33:32.194Z,100967.17
2019-05-25T19:38:40.354Z,100964.95
2019-05-25T19:41:08.964Z,100967.53
2019-05-25T19:43:37.592Z,100963.27
2019-05-25T19:46:06.638Z,100968.77
2019-05-25T19:51:14.729Z,100972.70
2019-05-25T19:53:43.342Z,100972.14
2019-05-25T19:56:11.979Z,100974.89
2019-05-25T19:58:40.643Z,100975.23
2019-05-25T20:03:47.133Z,100968.58
2019-05-25T20:06:15.766Z,100975.38
2019-05-25T20:08:44.687Z,100970.92
2019-05-25T20:11:13.321Z,100972.14
2019-05-25T20:13:41.943Z,100973.81
2019-05-25T20:16:10.567Z,100977.08
2019-05-25T20:18:39.575Z,100981.55
2019-05-25T20:21:08.232Z,100988.20
2019-05-25T20:23:37.438Z,100985.07
2019-05-25T20:26:06.109Z,100981.08
2019-05-25T20:28:34.728Z,100982.50
2019-05-25T20:33:46.383Z,100972.66
2019-05-25T20:36:15.380Z,100980.89
2019-05-25T20:38:43.999Z,100972.05
2019-05-25T20:43:50.252Z,100972.91
2019-05-25T20:46:19.189Z,100968.34
2019-05-25T20:48:47.822Z,100975.38
2019-05-25T20:51:16.513Z,100971.00
2019-05-25T20:53:45.776Z,100969.52
2019-05-25T20:56:14.376Z,100966.55
2019-05-25T20:58:43.043Z,100966.78
2019-05-25T21:01:11.664Z,100962.97
2019-05-25T21:03:40.608Z,100957.72
2019-05-25T21:08:47.142Z,100956.89
2019-05-25T21:11:16.130Z,100953.70
2019-05-25T21:13:45.789Z,100951.98
2019-05-25T21:16:14.440Z,100954.41
2019-05-25T21:18:43.087Z,100949.95
2019-05-25T21:23:49.767Z,100954.93
2019-05-25T21:26:18.421Z,100959.50
2019-05-25T21:28:47.314Z,100956.83
2019-05-25T21:31:16.368Z,100959.57
2019-05-25T21:33:44.989Z,100956.60
2019-05-25T21:38:57.103Z,100964.66
2019-05-25T21:41:25.739Z,100969.00
2019-05-25T21:46:32.243Z,100964.09
2019-05-25T21:49:00.881Z,100968.06
2019-05-25T21:51:29.918Z,100960.84
2019-05-25T21:53:59.126Z,100963.66
2019-05-25T21:56:28.112Z,100956.93
2019-05-25T21:58:57.045Z,100955.34
2019-05-25T22:01:26.239Z,100953.38
2019-05-25T22:03:54.869Z,100953.48
2019-05-25T22:06:24.770Z,100948.66
2019-05-25T22:08:53.629Z,100953.31
2019-05-25T22:13:59.919Z,100942.66
2019-05-25T22:16:28.920Z,100941.12
2019-05-25T22:18:57.649Z,100947.30
2019-05-25T22:21:26.652Z,100937.52
2019-05-25T22:23:55.638Z,100945.63
2019-05-25T22:26:24.292Z,100942.59
2019-05-25T22:28:52.958Z,100943.65
2019-05-25T22:31:21.854Z,100933.72
2019-05-25T22:36:39.634Z,100932.20
2019-05-25T22:38:58.847Z,100926.31
2019-05-25T22:41:27.455Z,100923.01
2019-05-25T22:43:56.148Z,100925.19
2019-05-25T22:46:24.751Z,100919.58
2019-05-25T22:51:33.633Z,100919.19
2019-05-25T22:54:02.947Z,100923.81
2019-05-25T22:56:31.847Z,100916.09
2019-05-25T22:59:01.031Z,100908.42
2019-05-25T23:04:09.381Z,100905.44
2019-05-25T23:06:38.018Z,100904.56
2019-05-25T23:09:07.304Z,100899.42
2019-05-25T23:11:36.293Z,100900.00
2019-05-25T23:14:05.087Z,100895.17
2019-05-25T23:16:34.029Z,100892.86
2019-05-25T23:19:02.736Z,100886.89
2019-05-25T23:21:31.747Z,100889.72
2019-05-25T23:24:00.590Z,100888.10
2019-05-25T23:26:29.317Z,100884.80
2019-05-25T23:28:58.293Z,100890.20
2019-05-25T23:31:26.850Z,100884.38
2019-05-25T23:33:55.552Z,100884.64
2019-05-25T23:36:24.167Z,100887.70
2019-05-25T23:41:30.172Z,100884.11
2019-05-25T23:43:59.952Z,100887.83
2019-05-25T23:46:29.129Z,100886.58
2019-05-25T23:48:57.801Z,100888.44
2019-05-25T23:51:26.431Z,100888.94
2019-05-25T23:53:55.474Z,100885.65
2019-05-25T23:56:24.485Z,100884.44
